Time;durP1;ratioP1;P1;durP2;ratioP2;P2;SDS_P1;SDS_P2;PMS_P1;PMS_P2;Temp;Humidity;BMP_temperature;BMP_pressure;BME280_temperature;BME280_humidity;BME280_pressure;Samples;Min_cycle;Max_cycle;Signal;HPM_P1;HPM_P2
2022/03/22 00:01:51;;;;;;;17.02;6.57;;;3.90;99.90;;;;;;5145474;28;20085;-74
2022/03/22 00:04:22;;;;;;;14.30;5.47;;;3.90;99.90;;;;;;5145254;28;20030;-74
2022/03/22 00:06:53;;;;;;;13.52;5.53;;;4.10;99.90;;;;;;5145310;28;20030;-74
2022/03/22 00:09:24;;;;;;;16.25;5.20;;;4.00;99.90;;;;;;5127708;28;20062;-74
2022/03/22 00:11:55;;;;;;;16.20;5.60;;;3.90;99.90;;;;;;5145338;28;20372;-74
2022/03/22 00:14:26;;;;;;;14.52;6.03;;;3.90;99.90;;;;;;5145343;28;20026;-74
2022/03/22 00:16:57;;;;;;;13.98;5.97;;;4.10;99.90;;;;;;5144212;28;20019;-74
2022/03/22 00:19:28;;;;;;;17.73;5.82;;;4.00;99.90;;;;;;5146179;28;20027;-74
2022/03/22 00:21:59;;;;;;;13.05;5.03;;;4.00;99.90;;;;;;5147766;28;20033;-74
2022/03/22 00:24:30;;;;;;;16.02;6.78;;;3.80;99.90;;;;;;5131374;28;20069;-74
2022/03/22 00:27:01;;;;;;;15.25;5.40;;;3.80;99.90;;;;;;5131629;28;20033;-74
2022/03/22 00:29:32;;;;;;;15.55;6.25;;;3.50;99.90;;;;;;5148421;28;20042;-74
2022/03/22 00:32:07;;;;;;;10.48;5.82;;;3.50;99.90;;;;;;5148809;28;20043;-74
2022/03/22 00:34:44;;;;;;;10.10;5.57;;;3.70;99.90;;;;;;5148753;28;20019;-74
2022/03/22 00:37:15;;;;;;;14.43;5.55;;;3.50;99.90;;;;;;5148775;28;20551;-73
2022/03/22 00:39:46;;;;;;;14.10;6.97;;;3.50;99.90;;;;;;5148671;28;20069;-74
2022/03/22 00:42:16;;;;;;;13.02;6.32;;;3.50;99.90;;;;;;5131159;28;20035;-74
2022/03/22 00:44:48;;;;;;;16.42;7.43;;;3.30;99.90;;;;;;5148473;28;20502;-74
2022/03/22 00:47:18;;;;;;;21.05;6.50;;;3.30;99.90;;;;;;5148562;28;20061;-74
2022/03/22 00:49:49;;;;;;;16.67;6.03;;;3.40;99.90;;;;;;5148215;28;20113;-74
2022/03/22 00:52:20;;;;;;;14.93;5.68;;;3.50;99.90;;;;;;5148405;28;20031;-74
2022/03/22 00:54:51;;;;;;;13.48;6.55;;;3.60;99.90;;;;;;5148421;28;20027;-74
2022/03/22 00:57:22;;;;;;;15.52;5.18;;;3.40;99.90;;;;;;5148367;28;20025;-74
2022/03/22 01:00:02;;;;;;;11.82;5.43;;;3.60;99.90;;;;;;5148041;28;20038;-74
2022/03/22 01:02:35;;;;;;;13.13;5.40;;;3.50;99.90;;;;;;5148264;28;20034;-74
2022/03/22 01:05:08;;;;;;;12.63;5.43;;;3.60;99.90;;;;;;5148177;28;20070;-74
2022/03/22 01:07:43;;;;;;;27.02;6.20;;;3.80;99.90;;;;;;5148146;28;20027;-74
2022/03/22 01:10:14;;;;;;;14.05;5.20;;;3.80;99.90;;;;;;5148180;28;20030;-74
2022/03/22 01:12:47;;;;;;;10.15;4.25;;;3.90;99.90;;;;;;5148082;28;20427;-74
2022/03/22 01:15:20;;;;;;;15.50;4.82;;;3.90;99.90;;;;;;5130682;28;20570;-74
2022/03/22 01:17:55;;;;;;;17.73;5.38;;;3.90;99.90;;;;;;5147989;28;20031;-74
2022/03/22 01:20:26;;;;;;;15.90;4.93;;;3.80;99.90;;;;;;5130231;28;20027;-74
2022/03/22 01:22:57;;;;;;;14.23;4.95;;;4.00;99.90;;;;;;5147821;28;20376;-74
2022/03/22 01:25:28;;;;;;;11.77;5.00;;;3.80;99.90;;;;;;5147760;28;20395;-74
2022/03/22 01:27:59;;;;;;;15.75;4.97;;;3.80;99.90;;;;;;5147775;28;20098;-74
2022/03/22 01:30:31;;;;;;;14.75;4.80;;;3.60;99.90;;;;;;5146181;28;20455;-74
2022/03/22 01:33:02;;;;;;;11.48;5.13;;;3.60;99.90;;;;;;5147306;28;20030;-74
2022/03/22 01:35:34;;;;;;;10.93;4.65;;;3.70;99.90;;;;;;5147769;28;20543;-74
2022/03/22 01:38:05;;;;;;;14.90;4.72;;;3.80;99.90;;;;;;5147567;28;20042;-74
2022/03/22 01:40:37;;;;;;;11.93;4.45;;;3.90;99.90;;;;;;5147558;28;20019;-74
2022/03/22 01:43:08;;;;;;;13.07;4.97;;;3.90;99.90;;;;;;5147288;28;20069;-74
2022/03/22 01:45:39;;;;;;;15.18;5.00;;;4.00;99.90;;;;;;5147092;28;20031;-74
2022/03/22 01:48:09;;;;;;;15.75;5.50;;;3.80;99.90;;;;;;5129943;28;20054;-74
2022/03/22 01:50:41;;;;;;;11.02;4.72;;;3.90;99.90;;;;;;5147330;28;20357;-74
2022/03/22 01:53:12;;;;;;;12.30;4.00;;;3.80;99.90;;;;;;5130020;28;20571;-74
2022/03/22 01:55:43;;;;;;;11.07;4.07;;;3.80;99.90;;;;;;5129891;28;20038;-74
2022/03/22 01:58:14;;;;;;;15.70;4.25;;;4.00;99.90;;;;;;5129803;28;20031;-74
2022/03/22 02:00:45;;;;;;;12.18;4.70;;;3.90;99.90;;;;;;5146972;28;20499;-74
2022/03/22 02:06:06;;;;;;;16.75;4.47;;;4.10;99.90;;;;;;5147389;28;20496;-74
2022/03/22 02:08:37;;;;;;;15.27;4.63;;;4.10;99.90;;;;;;5147009;28;20086;-74
2022/03/22 02:11:08;;;;;;;19.55;4.18;;;4.10;99.90;;;;;;5146929;28;20049;-74
2022/03/22 02:13:39;;;;;;;12.20;3.65;;;4.10;99.90;;;;;;5146985;28;20037;-74
2022/03/22 02:16:10;;;;;;;11.98;3.65;;;4.10;99.90;;;;;;5146880;28;20023;-74
2022/03/22 02:18:42;;;;;;;14.05;5.00;;;4.10;99.90;;;;;;5129516;28;20034;-74
2022/03/22 02:21:15;;;;;;;13.15;5.80;;;4.10;99.90;;;;;;5146738;28;20475;-74
2022/03/22 02:23:52;;;;;;;22.17;6.60;;;4.20;99.90;;;;;;5146571;28;20027;-74
2022/03/22 02:26:24;;;;;;;16.35;6.40;;;4.20;99.90;;;;;;5146716;28;20046;-74
2022/03/22 02:28:55;;;;;;;21.63;6.43;;;4.20;99.90;;;;;;5146536;28;20054;-74
2022/03/22 02:31:28;;;;;;;15.13;6.18;;;4.10;99.90;;;;;;5146476;28;20055;-74
2022/03/22 02:33:59;;;;;;;19.77;6.72;;;4.10;99.90;;;;;;5146561;28;20106;-74
2022/03/22 02:36:30;;;;;;;14.43;6.30;;;4.10;99.90;;;;;;5146512;28;20027;-74
2022/03/22 02:39:01;;;;;;;16.77;5.75;;;4.20;99.90;;;;;;5146545;28;20031;-74
2022/03/22 02:41:32;;;;;;;14.57;6.38;;;4.10;99.90;;;;;;5146494;28;20431;-75
2022/03/22 02:44:03;;;;;;;18.42;6.35;;;4.20;99.90;;;;;;5146277;28;20035;-74
2022/03/22 02:46:34;;;;;;;15.85;5.85;;;4.30;99.90;;;;;;5146365;28;20364;-74
2022/03/22 02:49:07;;;;;;;16.73;5.80;;;4.20;99.90;;;;;;5146382;28;20026;-74
2022/03/22 02:51:38;;;;;;;15.75;6.50;;;4.10;99.90;;;;;;5146246;28;20419;-74
2022/03/22 02:54:09;;;;;;;12.82;6.10;;;4.20;99.90;;;;;;5146380;28;20464;-74
2022/03/22 02:56:40;;;;;;;16.95;6.45;;;4.10;99.90;;;;;;5146326;28;20029;-74
2022/03/22 02:59:11;;;;;;;17.83;6.97;;;4.20;99.90;;;;;;5145912;28;20034;-74
2022/03/22 03:01:41;;;;;;;19.27;7.60;;;4.20;99.90;;;;;;5146074;28;20066;-74
2022/03/22 03:04:12;;;;;;;13.77;7.57;;;4.20;99.90;;;;;;5145922;28;20490;-74
2022/03/22 03:06:43;;;;;;;26.75;7.97;;;4.10;99.90;;;;;;5145975;28;20041;-74
2022/03/22 03:09:14;;;;;;;18.08;8.20;;;4.10;99.90;;;;;;5128629;28;20169;-74
2022/03/22 03:11:45;;;;;;;17.73;7.65;;;4.00;99.90;;;;;;5128571;28;20031;-74
2022/03/22 03:17:09;;;;;;;16.05;8.00;;;4.10;99.90;;;;;;5145983;28;20086;-74
2022/03/22 03:19:41;;;;;;;16.92;7.47;;;4.10;99.90;;;;;;5145935;28;20360;-74
2022/03/22 03:22:12;;;;;;;24.23;7.50;;;4.20;99.90;;;;;;5145838;28;20038;-74
2022/03/22 03:24:43;;;;;;;22.70;8.20;;;4.20;99.90;;;;;;5128359;28;20039;-74
2022/03/22 03:27:15;;;;;;;15.55;6.93;;;4.20;99.90;;;;;;5145867;28;20027;-74
2022/03/22 03:29:46;;;;;;;21.05;7.43;;;4.00;99.90;;;;;;5145642;28;20078;-74
2022/03/22 03:32:17;;;;;;;18.40;7.78;;;4.00;99.90;;;;;;5145292;28;20055;-74
2022/03/22 03:34:48;;;;;;;17.55;8.38;;;4.10;99.90;;;;;;5145757;28;20027;-74
2022/03/22 03:37:19;;;;;;;14.30;7.20;;;4.10;99.90;;;;;;5145577;28;20015;-74
2022/03/22 03:39:50;;;;;;;20.20;7.63;;;4.10;99.90;;;;;;5145708;28;20054;-74
2022/03/22 03:42:21;;;;;;;12.85;7.05;;;3.80;99.90;;;;;;5128103;28;20032;-74
2022/03/22 03:47:42;;;;;;;20.33;7.82;;;4.10;99.90;;;;;;5145657;28;20023;-74
2022/03/22 03:50:12;;;;;;;20.48;7.85;;;4.10;99.90;;;;;;5145598;28;20027;-74
2022/03/22 03:52:43;;;;;;;13.00;7.18;;;4.00;99.90;;;;;;5145492;28;20033;-73
2022/03/22 03:55:14;;;;;;;17.23;7.93;;;4.10;99.90;;;;;;5146539;28;20019;-74
2022/03/22 03:57:45;;;;;;;15.93;7.07;;;4.00;99.90;;;;;;5149486;28;20054;-74
2022/03/22 04:00:16;;;;;;;13.60;6.68;;;4.10;99.90;;;;;;5131579;28;20526;-74
2022/03/22 04:02:47;;;;;;;16.88;7.13;;;4.00;99.90;;;;;;5148454;28;20039;-74
2022/03/22 04:05:18;;;;;;;16.10;6.28;;;4.00;99.90;;;;;;5148893;28;20038;-74
2022/03/22 04:07:49;;;;;;;20.15;7.07;;;4.10;99.90;;;;;;5149134;28;20110;-74
2022/03/22 04:10:20;;;;;;;25.73;9.32;;;4.10;99.90;;;;;;5148891;28;20027;-74
2022/03/22 04:12:51;;;;;;;15.73;7.78;;;4.10;99.90;;;;;;5131390;28;20023;-74
2022/03/22 04:15:23;;;;;;;22.38;7.97;;;4.00;99.90;;;;;;5149183;28;20542;-74
2022/03/22 04:17:56;;;;;;;20.48;8.15;;;4.00;99.90;;;;;;5149219;28;20420;-74
2022/03/22 04:20:27;;;;;;;13.68;7.00;;;4.00;99.90;;;;;;5149123;28;20470;-74
2022/03/22 04:22:58;;;;;;;17.60;7.57;;;4.00;99.90;;;;;;5147632;28;20125;-74
2022/03/22 04:25:30;;;;;;;16.55;7.38;;;3.80;99.90;;;;;;5148943;28;20118;-74
2022/03/22 04:33:39;;;;;;;13.52;6.05;;;3.70;99.90;;;;;;5148963;28;20099;-74
2022/03/22 04:36:11;;;;;;;10.80;5.82;;;3.70;99.90;;;;;;5148794;28;20030;-74
2022/03/22 04:38:42;;;;;;;15.55;6.30;;;3.70;99.90;;;;;;5131417;28;20536;-74
2022/03/22 04:41:13;;;;;;;20.63;6.20;;;3.70;99.90;;;;;;5130911;28;20113;-74
2022/03/22 04:43:45;;;;;;;11.05;5.25;;;3.80;99.90;;;;;;5148475;28;20027;-74
2022/03/22 04:46:18;;;;;;;15.50;5.93;;;3.80;99.90;;;;;;5131285;28;20034;-74
2022/03/22 04:48:48;;;;;;;13.02;6.50;;;3.70;99.90;;;;;;5148557;28;20046;-74
2022/03/22 04:56:57;;;;;;;16.02;5.90;;;3.50;99.90;;;;;;5148454;28;20031;-74
2022/03/22 04:59:28;;;;;;;11.27;5.68;;;3.70;99.90;;;;;;5148042;28;20050;-74
2022/03/22 05:01:59;;;;;;;12.95;5.75;;;3.80;99.90;;;;;;5148375;28;20034;-74
2022/03/22 05:04:30;;;;;;;15.85;6.22;;;3.60;99.90;;;;;;5130718;28;20085;-74
2022/03/22 05:07:00;;;;;;;15.45;6.03;;;3.70;99.90;;;;;;5147065;28;20134;-74
2022/03/22 05:09:32;;;;;;;10.05;5.05;;;3.70;99.90;;;;;;5148236;28;20105;-74
2022/03/22 05:12:03;;;;;;;16.45;6.00;;;3.80;99.90;;;;;;5148219;28;20435;-74
2022/03/22 05:14:35;;;;;;;18.45;5.95;;;3.70;99.90;;;;;;5130798;28;20081;-74
2022/03/22 05:17:06;;;;;;;14.70;5.03;;;3.80;99.90;;;;;;5148178;28;20420;-74
2022/03/22 05:19:38;;;;;;;11.30;5.25;;;3.70;99.90;;;;;;5148069;28;20038;-74
2022/03/22 05:22:09;;;;;;;11.23;5.07;;;3.80;99.90;;;;;;5147919;28;20434;-74
2022/03/22 05:24:39;;;;;;;11.07;4.55;;;3.80;99.90;;;;;;5130345;28;20035;-74
2022/03/22 05:27:15;;;;;;;13.63;4.78;;;3.80;99.90;;;;;;5147881;28;20464;-74
2022/03/22 05:29:46;;;;;;;9.15;4.82;;;3.90;99.90;;;;;;5147815;28;20361;-74
2022/03/22 05:32:17;;;;;;;14.23;6.15;;;4.10;99.90;;;;;;5147709;28;20045;-74
2022/03/22 05:34:48;;;;;;;93.32;48.17;;;4.10;99.90;;;;;;5146486;28;20019;-74
2022/03/22 05:37:22;;;;;;;12.32;4.95;;;4.30;99.90;;;;;;5147214;28;20448;-74
2022/03/22 05:39:52;;;;;;;9.40;4.57;;;4.50;99.90;;;;;;5147658;28;20038;-74
2022/03/22 05:42:25;;;;;;;16.45;7.82;;;4.60;99.90;;;;;;5147460;28;20026;-74
2022/03/22 05:44:55;;;;;;;13.00;5.20;;;4.50;99.90;;;;;;5147419;28;20096;-74
2022/03/22 05:47:26;;;;;;;13.05;5.15;;;4.80;99.90;;;;;;5147441;28;20030;-74
2022/03/22 05:49:57;;;;;;;12.15;4.82;;;4.70;99.90;;;;;;5147458;28;20110;-74
2022/03/22 05:52:28;;;;;;;11.35;4.93;;;4.80;99.90;;;;;;5147269;28;20027;-74
2022/03/22 05:54:59;;;;;;;26.00;15.43;;;4.90;99.90;;;;;;5147316;28;20043;-74
2022/03/22 05:57:30;;;;;;;18.00;7.90;;;5.00;99.90;;;;;;5146939;28;20046;-74
2022/03/22 06:00:00;;;;;;;15.10;7.65;;;5.20;99.90;;;;;;5146970;28;20113;-74
2022/03/22 06:02:31;;;;;;;14.77;6.82;;;5.60;99.90;;;;;;5145747;28;20031;-74
2022/03/22 06:05:03;;;;;;;14.10;7.47;;;5.80;99.90;;;;;;5147018;28;20035;-74
2022/03/22 06:07:35;;;;;;;16.48;6.65;;;6.00;99.90;;;;;;5147017;28;20123;-74
2022/03/22 06:10:08;;;;;;;12.85;6.55;;;6.10;99.90;;;;;;5147145;28;20399;-74
2022/03/22 06:12:43;;;;;;;11.35;5.70;;;6.40;99.90;;;;;;5147031;28;20034;-74
2022/03/22 06:15:16;;;;;;;8.73;5.47;;;6.40;99.90;;;;;;5147148;28;20154;-74
2022/03/22 06:17:50;;;;;;;10.02;5.57;;;6.60;99.90;;;;;;5146741;28;20027;-74
2022/03/22 06:20:25;;;;;;;14.20;7.50;;;6.40;99.90;;;;;;5146844;28;20030;-74
2022/03/22 06:22:56;;;;;;;13.75;7.38;;;6.60;99.90;;;;;;5146841;28;20031;-74
2022/03/22 06:25:27;;;;;;;11.82;7.05;;;6.60;99.90;;;;;;5146679;28;20035;-74
2022/03/22 06:27:59;;;;;;;16.35;7.57;;;6.60;99.90;;;;;;5146639;28;20468;-74
2022/03/22 06:30:30;;;;;;;11.50;6.78;;;6.70;99.10;;;;;;5145304;28;20438;-74
2022/03/22 06:33:28;;;;;;;12.43;6.50;;;6.80;99.90;;;;;;5146625;28;20050;-74
2022/03/22 06:36:00;;;;;;;12.15;5.95;;;6.60;93.00;;;;;;5124477;28;20035;-74
2022/03/22 06:38:32;;;;;;;11.70;6.30;;;6.70;95.70;;;;;;5146610;28;20084;-74
2022/03/22 06:41:03;;;;;;;11.55;6.00;;;6.70;91.60;;;;;;5146435;28;20014;-74
2022/03/22 06:43:34;;;;;;;11.13;6.57;;;6.70;94.20;;;;;;5146197;28;20065;-74
2022/03/22 06:46:05;;;;;;;12.00;6.35;;;6.70;92.90;;;;;;5146420;28;20173;-74
2022/03/22 06:48:36;;;;;;;11.95;6.20;;;6.60;97.20;;;;;;5146391;28;20023;-74
2022/03/22 06:51:07;;;;;;;15.80;6.65;;;6.70;98.30;;;;;;5144980;28;20105;-74
2022/03/22 06:53:38;;;;;;;18.52;7.50;;;6.70;99.90;;;;;;5128900;28;20386;-74
2022/03/22 06:56:09;;;;;;;17.90;8.07;;;7.00;99.90;;;;;;5146204;28;20019;-74
2022/03/22 06:58:40;;;;;;;15.32;8.00;;;6.90;99.90;;;;;;5144517;28;20436;-74
2022/03/22 07:01:11;;;;;;;14.77;7.30;;;6.80;99.90;;;;;;5145057;28;20561;-76
2022/03/22 07:03:41;;;;;;;15.25;8.52;;;6.90;99.90;;;;;;5145494;28;20118;-74
2022/03/22 07:06:12;;;;;;;14.13;8.55;;;6.80;99.90;;;;;;5145603;28;20031;-74
2022/03/22 07:08:43;;;;;;;17.10;9.00;;;6.90;99.90;;;;;;5128070;28;20027;-74
2022/03/22 07:12:00;;;;;;;21.67;9.65;;;7.00;99.90;;;;;;5128473;28;20038;-74
2022/03/22 07:14:05;;;;;;;17.15;8.30;;;6.90;99.90;;;;;;5131790;28;20054;-76
2022/03/22 07:16:36;;;;;;;17.67;9.10;;;6.90;99.90;;;;;;5128036;28;20024;-74
2022/03/22 07:19:07;;;;;;;19.85;9.38;;;7.10;99.90;;;;;;5128685;28;20036;-75
2022/03/22 07:21:37;;;;;;;18.25;9.02;;;7.10;99.90;;;;;;5145714;28;20085;-74
2022/03/22 07:24:09;;;;;;;16.90;9.20;;;7.30;99.90;;;;;;5145562;28;20534;-74
2022/03/22 07:26:43;;;;;;;19.13;9.52;;;7.50;99.90;;;;;;5145473;28;20079;-74
2022/03/22 07:29:14;;;;;;;17.10;8.32;;;7.50;99.90;;;;;;5144987;28;20026;-74
2022/03/22 07:31:45;;;;;;;18.20;7.88;;;7.50;99.90;;;;;;5145734;28;20034;-74
2022/03/22 07:34:17;;;;;;;19.75;9.95;;;7.50;99.90;;;;;;5145672;28;20460;-74
2022/03/22 07:36:52;;;;;;;20.52;9.52;;;7.40;99.90;;;;;;5145682;28;20138;-74
2022/03/22 07:39:24;;;;;;;22.00;10.18;;;7.60;99.90;;;;;;5145728;28;20033;-74
2022/03/22 07:41:54;;;;;;;18.50;10.00;;;7.40;99.90;;;;;;5145552;28;20033;-74
2022/03/22 07:44:27;;;;;;;26.75;9.45;;;7.30;99.90;;;;;;5145437;28;20035;-74
2022/03/22 07:46:59;;;;;;;16.38;8.85;;;7.00;99.90;;;;;;5128294;28;20031;-74
2022/03/22 07:55:10;;;;;;;21.58;9.68;;;6.70;99.90;;;;;;5145871;28;20089;-74
2022/03/22 07:57:40;;;;;;;21.77;9.20;;;6.70;99.90;;;;;;5145530;28;20360;-74
2022/03/22 08:00:12;;;;;;;23.48;9.88;;;6.70;99.90;;;;;;5127443;28;20047;-74
2022/03/22 08:03:03;;;;;;;21.67;10.38;;;6.70;99.90;;;;;;5145340;28;20084;-74
2022/03/22 08:05:35;;;;;;;26.02;9.32;;;6.60;99.90;;;;;;5145347;28;20043;-74
2022/03/22 08:08:06;;;;;;;27.95;10.80;;;6.60;99.90;;;;;;5145408;28;20018;-74
2022/03/22 08:10:37;;;;;;;26.00;10.98;;;6.50;99.90;;;;;;5145380;28;20053;-74
2022/03/22 08:13:08;;;;;;;22.08;10.23;;;6.40;99.90;;;;;;5145432;28;20023;-74
2022/03/22 08:15:40;;;;;;;24.45;9.98;;;6.40;99.90;;;;;;5145305;28;20035;-74
2022/03/22 08:18:10;;;;;;;27.20;9.05;;;6.40;99.90;;;;;;5145315;28;20030;-74
2022/03/22 08:20:41;;;;;;;24.55;8.98;;;6.40;99.90;;;;;;5145271;28;20085;-74
2022/03/22 08:23:12;;;;;;;25.25;9.55;;;6.30;99.90;;;;;;5145097;28;20030;-74
2022/03/22 08:25:43;;;;;;;22.85;9.63;;;6.30;99.90;;;;;;5145184;28;20039;-74
2022/03/22 08:28:14;;;;;;;21.70;9.10;;;6.40;99.90;;;;;;5145148;28;20031;-74
2022/03/22 08:30:46;;;;;;;25.25;9.80;;;6.30;99.90;;;;;;5144890;28;20170;-74
2022/03/22 08:33:17;;;;;;;24.58;9.75;;;6.40;99.90;;;;;;5145205;28;20537;-74
2022/03/22 08:35:50;;;;;;;24.58;10.50;;;6.40;99.90;;;;;;5145160;28;20062;-74
2022/03/22 08:38:24;;;;;;;22.35;9.27;;;6.30;99.90;;;;;;5145172;28;20031;-74
2022/03/22 08:40:56;;;;;;;26.23;9.95;;;6.20;99.90;;;;;;5146584;28;20011;-76
2022/03/22 08:43:27;;;;;;;22.35;9.55;;;6.10;99.90;;;;;;5131160;28;20038;-74
2022/03/22 08:45:58;;;;;;;26.27;9.70;;;6.10;99.90;;;;;;5148667;28;20034;-74
2022/03/22 08:48:29;;;;;;;28.58;9.77;;;6.30;99.90;;;;;;5130825;28;20027;-74
2022/03/22 08:51:00;;;;;;;22.50;9.10;;;6.20;99.90;;;;;;5148561;28;20030;-74
2022/03/22 08:53:32;;;;;;;25.35;9.95;;;6.10;99.90;;;;;;5131145;28;20356;-74
2022/03/22 08:56:03;;;;;;;21.25;9.63;;;6.10;99.90;;;;;;5131093;28;20031;-74
2022/03/22 08:58:34;;;;;;;26.30;9.68;;;6.10;99.90;;;;;;5148330;28;20034;-74
2022/03/22 09:01:06;;;;;;;32.53;10.13;;;6.00;99.90;;;;;;5148155;28;20055;-74
2022/03/22 09:03:38;;;;;;;27.83;9.50;;;6.10;99.90;;;;;;5148164;28;20029;-74
2022/03/22 09:06:09;;;;;;;31.17;10.05;;;6.00;99.90;;;;;;5148250;28;20046;-74
2022/03/22 09:08:42;;;;;;;22.30;9.68;;;6.00;99.90;;;;;;5148165;28;20023;-74
2022/03/22 09:11:13;;;;;;;24.55;9.50;;;6.00;99.90;;;;;;5148135;28;20029;-74
2022/03/22 09:13:44;;;;;;;23.45;10.32;;;6.10;99.90;;;;;;5148109;28;20485;-74
2022/03/22 09:16:15;;;;;;;25.33;9.85;;;6.00;99.90;;;;;;5147864;28;20046;-74
2022/03/22 09:18:46;;;;;;;25.40;9.95;;;5.90;99.90;;;;;;5148018;28;20031;-74
2022/03/22 09:21:17;;;;;;;23.38;9.23;;;6.00;99.90;;;;;;5147975;28;20105;-74
2022/03/22 09:23:48;;;;;;;21.70;8.73;;;6.10;99.90;;;;;;5147688;28;20023;-74
2022/03/22 09:26:19;;;;;;;25.00;9.38;;;5.90;99.90;;;;;;5147447;28;20050;-74
2022/03/22 09:28:52;;;;;;;23.48;9.45;;;5.90;99.90;;;;;;5147860;28;20113;-74
2022/03/22 09:31:24;;;;;;;27.38;10.23;;;5.90;99.90;;;;;;5130388;28;20031;-75
2022/03/22 09:33:56;;;;;;;24.42;9.02;;;5.90;99.90;;;;;;5147663;28;20031;-74
2022/03/22 09:36:27;;;;;;;23.52;10.65;;;5.90;99.90;;;;;;5146332;28;20054;-74
2022/03/22 09:38:58;;;;;;;34.63;10.80;;;5.90;99.90;;;;;;5129755;28;20054;-75
2022/03/22 09:41:31;;;;;;;27.67;10.13;;;6.00;99.90;;;;;;5147283;28;20360;-75
2022/03/22 09:44:02;;;;;;;33.22;10.70;;;6.00;99.90;;;;;;5147345;28;20023;-74
2022/03/22 09:46:33;;;;;;;28.15;10.05;;;5.90;99.90;;;;;;5130095;28;20089;-74
2022/03/22 09:49:09;;;;;;;50.47;12.27;;;5.80;99.90;;;;;;5147489;28;20030;-74
2022/03/22 09:51:48;;;;;;;30.00;10.90;;;5.90;99.90;;;;;;5147014;28;20031;-74
2022/03/22 09:54:22;;;;;;;32.13;11.30;;;5.90;99.90;;;;;;5147430;28;20050;-74
2022/03/22 09:56:53;;;;;;;32.90;11.38;;;5.80;99.90;;;;;;5147333;28;20018;-74
2022/03/22 09:59:24;;;;;;;36.40;11.98;;;5.90;99.90;;;;;;5129560;28;20066;-74
2022/03/22 10:02:00;;;;;;;43.47;11.18;;;5.90;99.90;;;;;;5129823;28;20447;-74
2022/03/22 10:04:40;;;;;;;37.50;10.90;;;6.00;99.90;;;;;;5129665;28;20592;-74
2022/03/22 10:07:21;;;;;;;39.95;11.20;;;6.00;99.90;;;;;;5147049;28;20106;-74
2022/03/22 10:09:58;;;;;;;35.17;10.00;;;6.10;99.90;;;;;;5147107;28;20023;-74
2022/03/22 10:12:31;;;;;;;39.40;9.35;;;6.20;99.90;;;;;;5146976;28;20023;-74
2022/03/22 10:15:13;;;;;;;46.45;9.55;;;6.20;99.90;;;;;;5147024;28;20053;-74
2022/03/22 10:17:46;;;;;;;35.15;9.25;;;6.30;99.90;;;;;;5129716;28;20128;-74
2022/03/22 10:20:25;;;;;;;42.08;8.40;;;6.30;99.90;;;;;;5146828;28;20022;-74
2022/03/22 10:22:58;;;;;;;26.38;8.98;;;6.30;99.90;;;;;;5146825;28;20030;-74
2022/03/22 10:25:31;;;;;;;33.33;8.15;;;6.30;99.90;;;;;;5146841;28;20109;-74
2022/03/22 10:28:03;;;;;;;39.63;8.90;;;6.40;99.90;;;;;;5146603;28;20050;-74
2022/03/22 10:30:35;;;;;;;40.50;8.23;;;6.50;99.90;;;;;;5146688;28;20483;-74
2022/03/22 10:33:09;;;;;;;37.80;8.40;;;6.60;99.90;;;;;;5146616;28;20074;-74
2022/03/22 10:35:45;;;;;;;35.05;9.40;;;6.70;99.90;;;;;;5146074;28;20101;-74
2022/03/22 10:38:20;;;;;;;26.33;7.25;;;6.80;99.90;;;;;;5146609;28;20411;-74
2022/03/22 10:40:51;;;;;;;46.75;10.05;;;6.80;99.90;;;;;;5146477;28;20038;-74
2022/03/22 10:43:26;;;;;;;46.72;8.45;;;6.70;99.90;;;;;;5129029;28;20035;-74
2022/03/22 10:46:04;;;;;;;33.97;7.82;;;6.80;99.90;;;;;;5146448;28;20423;-75
2022/03/22 10:48:40;;;;;;;33.75;7.85;;;6.80;99.90;;;;;;5146371;28;20023;-74
2022/03/22 10:51:11;;;;;;;32.53;7.57;;;6.80;99.90;;;;;;5146397;28;20113;-74
2022/03/22 10:53:41;;;;;;;40.47;8.98;;;6.80;99.90;;;;;;5146301;28;20101;-74
2022/03/22 10:56:15;;;;;;;42.05;8.07;;;6.80;99.90;;;;;;5146239;28;20378;-74
2022/03/22 10:58:46;;;;;;;49.53;10.15;;;6.80;99.90;;;;;;5145737;28;20491;-74
2022/03/22 11:01:19;;;;;;;33.45;8.55;;;6.80;99.90;;;;;;5145946;28;20057;-75
2022/03/22 11:03:53;;;;;;;32.88;8.38;;;6.90;99.90;;;;;;5127797;28;20605;-74
2022/03/22 11:06:29;;;;;;;34.95;8.38;;;6.90;99.90;;;;;;5145993;28;20038;-74
2022/03/22 11:09:00;;;;;;;31.40;7.57;;;6.90;99.90;;;;;;5128708;28;20065;-74
2022/03/22 11:11:32;;;;;;;39.72;8.35;;;6.90;99.90;;;;;;5145995;28;20026;-74
2022/03/22 11:14:03;;;;;;;34.72;9.15;;;6.90;99.90;;;;;;5146081;28;20018;-74
2022/03/22 11:16:35;;;;;;;30.40;8.63;;;6.90;99.90;;;;;;5128636;28;20062;-74
2022/03/22 11:19:06;;;;;;;38.22;8.93;;;6.90;99.90;;;;;;5145882;28;20037;-74
2022/03/22 11:21:38;;;;;;;42.92;9.88;;;6.80;99.90;;;;;;5145856;28;20475;-74
2022/03/22 11:24:11;;;;;;;33.20;9.27;;;6.90;99.90;;;;;;5145633;28;20369;-74
2022/03/22 11:26:47;;;;;;;31.33;8.68;;;6.80;99.90;;;;;;5145894;28;20066;-74
2022/03/22 11:29:17;;;;;;;24.08;9.00;;;6.80;99.90;;;;;;5145762;28;20432;-75
2022/03/22 11:34:41;;;;;;;36.72;10.40;;;6.90;99.90;;;;;;5145817;28;20423;-74
2022/03/22 11:37:13;;;;;;;34.45;11.43;;;6.90;99.90;;;;;;5145586;28;20034;-74
2022/03/22 11:42:54;;;;;;;30.02;9.25;;;7.00;99.90;;;;;;5145912;28;20387;-74
2022/03/22 11:45:25;;;;;;;38.70;10.52;;;7.00;99.90;;;;;;5145562;28;20062;-74
2022/03/22 11:47:56;;;;;;;33.53;9.02;;;7.00;99.90;;;;;;5145676;28;20059;-74
2022/03/22 11:50:28;;;;;;;37.88;10.07;;;7.00;99.90;;;;;;5145582;28;20383;-74
2022/03/22 11:53:01;;;;;;;34.90;9.30;;;7.00;99.90;;;;;;5145569;28;20030;-74
2022/03/22 11:55:31;;;;;;;42.10;10.77;;;7.00;99.90;;;;;;5145625;28;20379;-74
2022/03/22 11:58:10;;;;;;;41.55;10.48;;;7.00;99.90;;;;;;5145408;28;20011;-74
2022/03/22 12:00:47;;;;;;;41.30;10.90;;;6.90;99.90;;;;;;5145345;28;20054;-75
2022/03/22 12:03:23;;;;;;;37.75;11.50;;;6.90;99.90;;;;;;5145369;28;20027;-74
2022/03/22 12:05:54;;;;;;;41.88;11.52;;;6.90;99.90;;;;;;5145301;28;20483;-74
2022/03/22 12:08:26;;;;;;;44.65;11.15;;;6.90;99.90;;;;;;5128097;28;20030;-74
2022/03/22 12:10:59;;;;;;;46.60;12.52;;;6.80;99.90;;;;;;5128049;28;20487;-74
2022/03/22 12:13:30;;;;;;;41.90;10.40;;;6.90;99.90;;;;;;5145384;28;20226;-75
2022/03/22 12:16:01;;;;;;;38.45;11.55;;;6.90;99.90;;;;;;5147226;28;20407;-74
2022/03/22 12:18:32;;;;;;;42.90;12.15;;;6.90;99.90;;;;;;5149218;28;20029;-74
2022/03/22 12:21:04;;;;;;;37.47;10.40;;;6.90;99.90;;;;;;5149111;28;20031;-75
2022/03/22 12:23:35;;;;;;;44.85;10.40;;;6.90;99.90;;;;;;5149042;28;20093;-74
2022/03/22 12:26:07;;;;;;;37.58;12.43;;;6.90;99.90;;;;;;5149095;28;20093;-74
2022/03/22 12:28:52;;;;;;;37.85;11.07;;;6.80;99.90;;;;;;5148934;28;20487;-74
2022/03/22 12:31:23;;;;;;;39.15;11.63;;;6.80;99.90;;;;;;5148883;28;20126;-74
2022/03/22 12:33:57;;;;;;;41.58;12.93;;;6.80;99.90;;;;;;5148937;28;20418;-74
2022/03/22 12:36:28;;;;;;;41.42;12.45;;;6.70;99.90;;;;;;5148794;28;20098;-74
2022/03/22 12:38:59;;;;;;;44.00;12.25;;;6.80;99.90;;;;;;5148912;28;20154;-74
2022/03/22 12:41:30;;;;;;;41.15;11.55;;;6.80;99.90;;;;;;5148660;28;20030;-74
2022/03/22 12:44:01;;;;;;;32.80;11.35;;;6.80;99.90;;;;;;5148452;28;20027;-74
2022/03/22 12:46:32;;;;;;;35.47;10.73;;;6.80;99.90;;;;;;5148694;28;20383;-74
2022/03/22 12:49:05;;;;;;;33.30;10.93;;;6.70;99.90;;;;;;5148628;28;20020;-74
2022/03/22 12:51:36;;;;;;;31.42;11.20;;;6.80;99.90;;;;;;5148489;28;20462;-74
2022/03/22 12:54:08;;;;;;;34.25;12.07;;;6.80;99.90;;;;;;5148525;28;20106;-74
2022/03/22 12:56:47;;;;;;;31.77;11.25;;;6.90;99.90;;;;;;5148411;28;20435;-74
2022/03/22 12:59:20;;;;;;;33.25;10.82;;;6.90;99.90;;;;;;5148141;28;20423;-75
2022/03/22 13:01:58;;;;;;;34.35;10.77;;;6.80;99.90;;;;;;5148269;28;20039;-75
2022/03/22 13:04:29;;;;;;;31.48;10.18;;;6.80;99.90;;;;;;5126446;28;20635;-74
2022/03/22 13:07:04;;;;;;;37.13;10.68;;;6.80;99.90;;;;;;5148248;28;20089;-75
2022/03/22 13:12:25;;;;;;;27.97;9.20;;;6.70;99.90;;;;;;5148560;28;20093;-74
2022/03/22 13:15:05;;;;;;;29.55;9.68;;;6.70;99.90;;;;;;5148169;28;20383;-74
2022/03/22 13:17:43;;;;;;;26.58;8.48;;;6.80;99.90;;;;;;5130757;28;20089;-75
2022/03/22 13:20:21;;;;;;;31.25;9.82;;;6.80;99.90;;;;;;5148051;28;20059;-74
2022/03/22 13:22:57;;;;;;;50.40;9.45;;;6.80;99.90;;;;;;5147877;28;20019;-75
2022/03/22 13:25:34;;;;;;;29.35;9.15;;;6.80;99.90;;;;;;5147875;28;20031;-74
2022/03/22 13:28:17;;;;;;;39.38;10.38;;;6.90;99.90;;;;;;5146809;28;20023;-74
2022/03/22 13:30:48;;;;;;;22.20;10.43;;;6.80;99.90;;;;;;5147969;28;20475;-74
2022/03/22 13:33:21;;;;;;;27.45;10.82;;;6.20;99.90;;;;;;5147390;28;20502;-74
2022/03/22 13:35:54;;;;;;;25.83;11.02;;;6.20;99.90;;;;;;5148316;28;20111;-76
2022/03/22 13:38:26;;;;;;;66.00;36.95;;;6.20;99.90;;;;;;5148136;28;20065;-75
2022/03/22 13:41:03;;;;;;;31.52;15.60;;;6.20;99.90;;;;;;5148033;28;20050;-76
2022/03/22 13:43:44;;;;;;;52.65;22.63;;;6.10;99.90;;;;;;5148422;28;20046;-76
2022/03/22 13:46:15;;;;;;;152.52;60.38;;;6.00;99.90;;;;;;5148044;28;20046;-76